Spencer, Nebraska
Current Conditions -  °F | °C
As of 9:35 AM on Saturday 22 Nov 2014 (Local Time) from KONL Reporting Station
Clear Clear  
Wind Chill: 32°   Ceiling: Unl
Heat Index: 39°   Visibility: 10mi
Dew Point: 33°   Wind: 9mph
Humidity: 79%   Direction: 190°S
Pressure: 29.7"   Gusts: NA
Location:  42.87°N, 98.7°W
Report Text: KONL 221535Z AUTO 19008KT 10SM CLR 04/00 A2970 RMK AO2 T00370004
Loading
Personal Weather Stations






























Interactive Weather Map New forecast layout! Learn more

10-Day Weather Forecast

Advertisements
Track Severe Weather on mobile